createdAt,value
2022-08-16T00:00:20.474Z,97379.47
2022-08-16T00:02:49.189Z,97389.81
2022-08-16T00:05:15.907Z,97391.97
2022-08-16T00:07:42.308Z,97384.91
2022-08-16T00:10:09.629Z,97383.53
2022-08-16T00:12:47.309Z,97381.44
2022-08-16T00:15:24.289Z,97379.69
2022-08-16T00:17:56.218Z,97379.19
2022-08-16T00:20:24.122Z,97372.06
2022-08-16T00:22:51.499Z,97382.59
2022-08-16T00:25:18.252Z,97375.09
2022-08-16T00:27:44.746Z,97387.25
2022-08-16T00:30:28.518Z,97386.75
2022-08-16T00:32:56.998Z,97386.78
2022-08-16T00:35:26.247Z,97380.97
2022-08-16T00:37:59.476Z,97390.97
2022-08-16T00:40:50.810Z,97383.88
2022-08-16T00:43:21.609Z,97389.03
2022-08-16T00:45:57.768Z,97382.31
2022-08-16T00:48:30.177Z,97380.41
2022-08-16T00:50:57.805Z,97377.16
2022-08-16T00:53:26.156Z,97381.44
2022-08-16T00:55:53.114Z,97379.69
2022-08-16T00:58:34.343Z,97379.81
2022-08-16T01:01:01.633Z,97375.56
2022-08-16T01:03:30.294Z,97376.41
2022-08-16T01:05:56.936Z,97385.69
2022-08-16T01:08:35.464Z,97380.16
2022-08-16T01:11:03.531Z,97383.34
2022-08-16T01:13:30.692Z,97382.81
2022-08-16T01:16:01.266Z,97372.75
2022-08-16T01:18:41.456Z,97380.00
2022-08-16T01:21:33.470Z,97387.97
2022-08-16T01:24:05.622Z,97395.28
2022-08-16T01:26:51.979Z,97398.94
2022-08-16T01:29:20.142Z,97404.47
2022-08-16T01:32:06.490Z,97404.84
2022-08-16T01:34:36.329Z,97397.47
2022-08-16T01:37:13.999Z,97399.75
2022-08-16T01:39:42.713Z,97398.13
2022-08-16T01:42:12.976Z,97399.75
2022-08-16T01:44:39.803Z,97405.19
2022-08-16T01:47:06.252Z,97394.66
2022-08-16T01:49:43.603Z,97395.41
2022-08-16T01:52:29.533Z,97399.09
2022-08-16T01:54:57.050Z,97406.00
2022-08-16T01:57:24.703Z,97414.13
2022-08-16T01:59:54.417Z,97408.13
2022-08-16T02:02:27.018Z,97413.41
2022-08-16T02:04:55.172Z,97418.06
2022-08-16T02:07:23.611Z,97406.84
2022-08-16T02:09:58.648Z,97402.41
2022-08-16T02:12:45.828Z,97408.44
2022-08-16T02:15:13.946Z,97418.44
2022-08-16T02:17:40.420Z,97414.31
2022-08-16T02:20:11.668Z,97405.81
2022-08-16T02:22:38.660Z,97404.25
2022-08-16T02:25:06.533Z,97416.25
2022-08-16T02:27:34.809Z,97406.34
2022-08-16T02:30:05.107Z,97411.25
2022-08-16T02:32:51.148Z,97409.69
2022-08-16T02:35:18.526Z,97411.69
2022-08-16T02:37:51.590Z,97407.34
2022-08-16T02:40:19.640Z,97410.91
2022-08-16T02:42:47.877Z,97410.81
2022-08-16T02:45:16.046Z,97408.75
2022-08-16T02:48:00.300Z,97397.66
2022-08-16T02:50:55.564Z,97405.03
2022-08-16T02:53:15.125Z,97402.75
2022-08-16T02:55:44.736Z,97408.66
2022-08-16T02:58:11.598Z,97399.53
2022-08-16T03:00:40.216Z,97400.75
2022-08-16T03:03:12.013Z,97397.06
2022-08-16T03:05:42.035Z,97402.75
2022-08-16T03:08:52.086Z,97398.84
2022-08-16T03:10:55.727Z,97397.34
2022-08-16T03:13:25.805Z,97387.38
2022-08-16T03:15:52.891Z,97397.69
2022-08-16T03:18:34.469Z,97395.94
2022-08-16T03:21:07.166Z,97399.72
2022-08-16T03:23:36.543Z,97398.59
2022-08-16T03:26:02.910Z,97394.19
2022-08-16T03:28:29.284Z,97400.97
2022-08-16T03:30:56.723Z,97398.06
2022-08-16T03:33:23.090Z,97400.59
2022-08-16T03:35:49.771Z,97395.28
2022-08-16T03:38:32.544Z,97397.38
2022-08-16T03:41:00.159Z,97391.53
2022-08-16T03:43:51.874Z,97384.69
2022-08-16T03:46:47.445Z,97395.31
2022-08-16T03:49:02.775Z,97398.53
2022-08-16T03:51:29.150Z,97398.94
2022-08-16T03:53:57.735Z,97409.00
2022-08-16T03:56:27.954Z,97397.19
2022-08-16T03:58:57.181Z,97400.97
2022-08-16T04:01:24.566Z,97393.44
2022-08-16T04:03:55.863Z,97398.94
2022-08-16T04:06:22.500Z,97398.78
2022-08-16T04:08:48.911Z,97400.31
2022-08-16T04:11:16.265Z,97403.78
2022-08-16T04:13:59.456Z,97411.28
2022-08-16T04:16:31.199Z,97416.69
2022-08-16T04:19:02.258Z,97412.56
2022-08-16T04:21:32.079Z,97410.69
2022-08-16T04:23:59.203Z,97409.22
2022-08-16T04:26:25.587Z,97413.47
2022-08-16T04:29:17.087Z,97403.84
2022-08-16T04:31:43.927Z,97412.13
2022-08-16T04:34:10.345Z,97411.91
2022-08-16T04:36:39.378Z,97408.72
2022-08-16T04:39:05.736Z,97412.75
2022-08-16T04:41:37.486Z,97413.50
2022-08-16T04:44:33.186Z,97418.13
2022-08-16T04:47:03.462Z,97429.72
2022-08-16T04:49:43.994Z,97426.06
2022-08-16T04:52:33.093Z,97432.22
2022-08-16T04:54:59.041Z,97432.84
2022-08-16T04:57:26.398Z,97440.63
2022-08-16T04:59:58.373Z,97429.63
2022-08-16T05:02:42.202Z,97437.81
2022-08-16T05:05:17.131Z,97436.16
2022-08-16T05:07:57.938Z,97433.63
2022-08-16T05:10:26.362Z,97439.72
2022-08-16T05:12:52.722Z,97446.38
2022-08-16T05:15:19.094Z,97446.81
2022-08-16T05:17:46.779Z,97449.00
2022-08-16T05:20:38.711Z,97452.75
2022-08-16T05:22:59.547Z,97458.69
2022-08-16T05:25:48.561Z,97467.06
2022-08-16T05:28:13.106Z,97450.38
2022-08-16T05:30:39.732Z,97459.56
2022-08-16T05:33:16.674Z,97457.84
2022-08-16T05:35:44.640Z,97468.66
2022-08-16T05:38:33.477Z,97476.47
2022-08-16T05:41:05.964Z,97475.31
2022-08-16T05:43:46.835Z,97483.53
2022-08-16T05:46:30.085Z,97483.09
2022-08-16T05:49:03.133Z,97480.09
2022-08-16T05:51:38.135Z,97476.91
2022-08-16T05:54:06.649Z,97481.53
2022-08-16T05:56:33.007Z,97481.59
2022-08-16T05:59:02.416Z,97490.28
2022-08-16T06:01:29.272Z,97489.66
2022-08-16T06:03:59.295Z,97503.44
2022-08-16T06:06:27.989Z,97495.41
2022-08-16T06:08:55.447Z,97493.69
2022-08-16T06:11:22.190Z,97503.53
2022-08-16T06:13:51.959Z,97496.81
2022-08-16T06:16:22.054Z,97496.06
2022-08-16T06:18:53.324Z,97498.97
2022-08-16T06:21:22.899Z,97503.41
2022-08-16T06:23:53.968Z,97502.53
2022-08-16T06:26:20.838Z,97511.41
2022-08-16T06:28:47.267Z,97513.53
2022-08-16T06:31:13.710Z,97517.47
2022-08-16T06:33:41.592Z,97514.81
2022-08-16T06:36:09.002Z,97516.78
2022-08-16T06:38:35.788Z,97513.78
2022-08-16T06:41:05.788Z,97515.91
2022-08-16T06:43:35.505Z,97517.41
2022-08-16T06:46:03.573Z,97521.97
2022-08-16T06:48:32.803Z,97518.53
2022-08-16T06:51:00.168Z,97517.91
2022-08-16T06:53:26.539Z,97524.00
2022-08-16T06:55:58.114Z,97527.72
2022-08-16T06:58:31.716Z,97527.63
2022-08-16T07:00:59.673Z,97531.75
2022-08-16T07:03:28.273Z,97540.75
2022-08-16T07:05:59.037Z,97535.28
2022-08-16T07:08:25.638Z,97540.09
2022-08-16T07:10:53.889Z,97538.72
2022-08-16T07:13:43.673Z,97540.94
2022-08-16T07:16:07.596Z,97551.66
2022-08-16T07:18:35.075Z,97550.09
2022-08-16T07:21:02.357Z,97553.25
2022-08-16T07:23:36.949Z,97554.47
2022-08-16T07:26:06.087Z,97553.72
2022-08-16T07:28:32.472Z,97551.53
2022-08-16T07:31:01.944Z,97547.03
2022-08-16T07:33:51.827Z,97551.69
2022-08-16T07:36:14.897Z,97554.16
2022-08-16T07:38:48.822Z,97557.47
2022-08-16T07:41:16.429Z,97557.13
2022-08-16T07:43:43.303Z,97559.16
2022-08-16T07:46:37.570Z,97556.53
2022-08-16T07:48:56.263Z,97560.41
2022-08-16T07:51:31.718Z,97564.53
2022-08-16T07:54:02.336Z,97568.84
2022-08-16T07:56:37.193Z,97568.50
2022-08-16T07:59:04.088Z,97565.84
2022-08-16T08:01:31.882Z,97570.81
2022-08-16T08:03:58.516Z,97580.56
2022-08-16T08:06:25.611Z,97569.16
2022-08-16T08:08:57.614Z,97575.47
2022-08-16T08:11:28.150Z,97577.88
2022-08-16T08:13:55.028Z,97578.13
2022-08-16T08:16:30.129Z,97568.34
2022-08-16T08:19:01.039Z,97584.63
2022-08-16T08:22:01.068Z,97578.56
2022-08-16T08:24:15.561Z,97582.72
2022-08-16T08:26:43.038Z,97573.38
2022-08-16T08:29:09.592Z,97579.72
2022-08-16T08:31:36.388Z,97582.53
2022-08-16T08:34:07.224Z,97588.00
2022-08-16T08:36:34.418Z,97581.56
2022-08-16T08:39:12.541Z,97586.59
2022-08-16T08:41:40.471Z,97588.81
2022-08-16T08:44:28.732Z,97591.88
2022-08-16T08:47:00.130Z,97595.16
2022-08-16T08:49:46.323Z,97596.75
2022-08-16T08:52:33.724Z,97591.81
2022-08-16T08:55:03.265Z,97600.97
2022-08-16T08:57:35.697Z,97607.97
2022-08-16T09:00:03.137Z,97600.97
2022-08-16T09:02:39.730Z,97605.72
2022-08-16T09:05:14.909Z,97601.63
2022-08-16T09:08:00.959Z,97601.75
2022-08-16T09:10:29.420Z,97599.31
2022-08-16T09:12:56.391Z,97599.72
2022-08-16T09:15:23.890Z,97614.94
2022-08-16T09:17:55.695Z,97600.56
2022-08-16T09:20:23.675Z,97610.00
2022-08-16T09:22:52.683Z,97606.94
2022-08-16T09:25:25.781Z,97611.09
2022-08-16T09:28:02.644Z,97601.75
2022-08-16T09:30:43.996Z,97607.03
2022-08-16T09:33:11.084Z,97604.88
2022-08-16T09:35:38.735Z,97603.28
2022-08-16T09:38:05.669Z,97612.94
2022-08-16T09:40:42.764Z,97615.00
2022-08-16T09:43:21.048Z,97613.78
2022-08-16T09:45:56.835Z,97626.72
2022-08-16T09:48:44.100Z,97632.94
2022-08-16T09:51:09.822Z,97630.09
2022-08-16T09:53:37.421Z,97631.91
2022-08-16T09:56:11.531Z,97627.88
2022-08-16T09:59:05.258Z,97627.25
2022-08-16T10:01:24.526Z,97632.34
2022-08-16T10:04:01.564Z,97623.78
2022-08-16T10:06:33.485Z,97623.31
2022-08-16T10:09:05.584Z,97629.31
2022-08-16T10:11:51.704Z,97629.31
2022-08-16T10:14:19.947Z,97626.78
2022-08-16T10:16:51.149Z,97618.84
2022-08-16T10:19:26.219Z,97615.59
2022-08-16T10:21:56.552Z,97628.50
2022-08-16T10:24:28.324Z,97639.63
2022-08-16T10:27:16.313Z,97634.88
2022-08-16T10:30:00.129Z,97631.56
2022-08-16T10:32:27.975Z,97629.13
2022-08-16T10:34:57.212Z,97636.09
2022-08-16T10:37:32.217Z,97635.44
2022-08-16T10:40:02.558Z,97621.81
2022-08-16T10:42:29.134Z,97629.34
2022-08-16T10:44:56.351Z,97628.88
2022-08-16T10:47:22.987Z,97629.09
2022-08-16T10:49:50.112Z,97632.25
2022-08-16T10:52:18.145Z,97628.47
2022-08-16T10:55:40.835Z,97639.31
2022-08-16T10:57:35.123Z,97617.94
2022-08-16T11:00:04.425Z,97624.09
2022-08-16T11:02:59.374Z,97628.16
2022-08-16T11:05:18.126Z,97635.75
2022-08-16T11:07:52.447Z,97631.63
2022-08-16T11:11:05.263Z,97628.00
2022-08-16T11:15:57.489Z,97644.44
2022-08-16T11:18:48.685Z,97635.28
2022-08-16T11:21:10.645Z,97641.19
2022-08-16T11:23:58.366Z,97642.97
2022-08-16T11:26:25.422Z,97645.19
2022-08-16T11:31:39.495Z,97641.88
2022-08-16T11:34:09.219Z,97636.78
2022-08-16T11:36:36.669Z,97641.66
2022-08-16T11:39:03.665Z,97655.19
2022-08-16T11:41:32.305Z,97657.16
2022-08-16T11:43:58.837Z,97666.56
2022-08-16T11:46:44.521Z,97659.09
2022-08-16T11:49:13.976Z,97661.75
2022-08-16T11:51:43.839Z,97664.00
2022-08-16T11:54:20.834Z,97668.56
2022-08-16T11:56:52.901Z,97660.38
2022-08-16T11:59:25.344Z,97659.28
2022-08-16T12:02:00.068Z,97664.50
2022-08-16T12:04:45.028Z,97665.59
2022-08-16T12:07:11.390Z,97659.13
2022-08-16T12:09:43.533Z,97657.09
2022-08-16T12:12:10.024Z,97654.84
2022-08-16T12:14:37.637Z,97658.72
2022-08-16T12:17:04.518Z,97654.34
2022-08-16T12:19:35.236Z,97659.44
2022-08-16T12:22:05.903Z,97649.88
2022-08-16T12:24:47.873Z,97649.91
2022-08-16T12:27:17.670Z,97656.53
2022-08-16T12:29:44.041Z,97652.25
2022-08-16T12:32:37.906Z,97650.94
2022-08-16T12:34:56.749Z,97656.22
2022-08-16T12:37:24.632Z,97649.06
2022-08-16T12:39:52.430Z,97655.00
2022-08-16T12:42:19.484Z,97662.13
2022-08-16T12:44:47.164Z,97646.06
2022-08-16T12:47:32.647Z,97657.72
2022-08-16T12:49:59.348Z,97651.47
2022-08-16T12:52:32.772Z,97654.16
2022-08-16T12:55:00.559Z,97666.16
2022-08-16T12:57:36.445Z,97659.31
2022-08-16T13:00:04.909Z,97658.78
2022-08-16T13:02:33.314Z,97660.47
2022-08-16T13:05:02.578Z,97655.94
2022-08-16T13:07:29.561Z,97658.34
2022-08-16T13:10:21.010Z,97646.72
2022-08-16T13:12:58.590Z,97640.84
2022-08-16T13:15:25.665Z,97652.34
2022-08-16T13:17:54.394Z,97657.56
2022-08-16T13:20:22.568Z,97653.78
2022-08-16T13:22:50.838Z,97662.13
2022-08-16T13:25:20.833Z,97651.78
2022-08-16T13:28:02.823Z,97652.94
2022-08-16T13:30:36.969Z,97663.81
2022-08-16T13:33:12.512Z,97670.94
2022-08-16T13:35:43.323Z,97659.38
2022-08-16T13:38:10.220Z,97661.94
2022-08-16T13:40:47.920Z,97661.28
2022-08-16T13:43:15.416Z,97659.16
2022-08-16T13:45:44.926Z,97653.19
2022-08-16T13:48:11.605Z,97654.59
2022-08-16T13:50:52.134Z,97650.22
2022-08-16T13:53:18.699Z,97654.69
2022-08-16T13:55:58.435Z,97653.59
2022-08-16T13:58:37.309Z,97648.63
2022-08-16T14:01:12.302Z,97645.97
2022-08-16T14:03:39.532Z,97642.41
2022-08-16T14:06:06.608Z,97634.31
2022-08-16T14:08:37.402Z,97635.13
2022-08-16T14:11:11.809Z,97638.69
2022-08-16T14:13:38.965Z,97630.41
2022-08-16T14:16:08.211Z,97639.78
2022-08-16T14:18:50.904Z,97629.00
2022-08-16T14:21:19.295Z,97638.63
2022-08-16T14:23:48.384Z,97638.78
2022-08-16T14:26:14.792Z,97643.09
2022-08-16T14:28:41.156Z,97638.84
2022-08-16T14:31:09.386Z,97636.19
2022-08-16T14:33:35.963Z,97643.34
2022-08-16T14:36:02.327Z,97642.31
2022-08-16T14:38:29.795Z,97639.81
2022-08-16T14:41:06.901Z,97637.41
2022-08-16T14:43:36.627Z,97637.34
2022-08-16T14:46:04.612Z,97625.88
2022-08-16T14:48:33.994Z,97629.50
2022-08-16T14:51:01.091Z,97631.88
2022-08-16T14:53:27.955Z,97638.06
2022-08-16T14:55:54.369Z,97622.47
2022-08-16T14:58:34.538Z,97621.00
2022-08-16T15:01:03.057Z,97629.94
2022-08-16T15:03:29.573Z,97629.22
2022-08-16T15:06:00.341Z,97624.97
2022-08-16T15:08:36.129Z,97623.06
2022-08-16T15:11:03.343Z,97629.16
2022-08-16T15:13:29.690Z,97633.03
2022-08-16T15:15:58.978Z,97635.56
2022-08-16T15:18:31.947Z,97649.69
2022-08-16T15:20:58.806Z,97642.00
2022-08-16T15:23:25.451Z,97633.72
2022-08-16T15:26:02.618Z,97640.97
2022-08-16T15:28:31.785Z,97639.91
2022-08-16T15:31:01.027Z,97645.16
2022-08-16T15:33:32.241Z,97638.88
2022-08-16T15:35:59.133Z,97636.41
2022-08-16T15:38:57.528Z,97644.03
2022-08-16T15:41:26.960Z,97643.38
2022-08-16T15:44:05.474Z,97634.78
2022-08-16T15:46:55.028Z,97638.41
2022-08-16T15:49:23.702Z,97641.03
2022-08-16T15:51:51.770Z,97643.28
2022-08-16T15:54:30.039Z,97635.53
2022-08-16T15:57:02.763Z,97635.06
2022-08-16T15:59:49.493Z,97636.81
2022-08-16T16:02:29.150Z,97635.47
2022-08-16T16:04:57.536Z,97633.97
2022-08-16T16:07:27.498Z,97639.91
2022-08-16T16:09:58.246Z,97635.41
2022-08-16T16:15:12.181Z,97635.09
2022-08-16T16:17:38.551Z,97625.94
2022-08-16T16:20:13.761Z,97633.41
2022-08-16T16:22:41.722Z,97632.44
2022-08-16T16:25:08.545Z,97626.44
2022-08-16T16:27:36.137Z,97625.88
2022-08-16T16:30:04.353Z,97631.19
2022-08-16T16:32:50.710Z,97636.56
2022-08-16T16:35:17.081Z,97632.91
2022-08-16T16:37:44.244Z,97636.03
2022-08-16T16:40:11.158Z,97634.44
2022-08-16T16:42:44.211Z,97637.81
2022-08-16T16:45:12.015Z,97641.81
2022-08-16T16:47:41.427Z,97630.84
2022-08-16T16:50:09.203Z,97635.81
2022-08-16T16:52:44.304Z,97638.50
2022-08-16T16:55:12.730Z,97636.47
2022-08-16T16:57:57.879Z,97639.13
2022-08-16T17:00:30.225Z,97639.41
2022-08-16T17:03:05.492Z,97641.28
2022-08-16T17:05:32.581Z,97649.34
2022-08-16T17:07:59.172Z,97648.72
2022-08-16T17:10:46.243Z,97654.75
2022-08-16T17:13:13.900Z,97653.03
2022-08-16T17:15:45.499Z,97653.47
2022-08-16T17:19:15.466Z,97663.59
2022-08-16T17:21:05.605Z,97649.81
2022-08-16T17:23:58.418Z,97651.88
2022-08-16T17:26:18.353Z,97655.50
2022-08-16T17:28:59.556Z,97658.41
2022-08-16T17:31:40.678Z,97652.25
2022-08-16T17:34:29.390Z,97656.34
2022-08-16T17:36:54.547Z,97665.28
2022-08-16T17:39:21.112Z,97673.13
2022-08-16T17:41:50.202Z,97657.53
2022-08-16T17:44:19.109Z,97655.31
2022-08-16T17:46:51.169Z,97664.88
2022-08-16T17:49:19.014Z,97662.13
2022-08-16T17:51:45.459Z,97666.81
2022-08-16T17:54:20.397Z,97662.25
2022-08-16T17:56:57.303Z,97661.22
2022-08-16T17:59:24.176Z,97671.50
2022-08-16T18:01:50.634Z,97666.94
2022-08-16T18:04:48.815Z,97665.84
2022-08-16T18:07:05.239Z,97673.81
2022-08-16T18:09:31.633Z,97670.97
2022-08-16T18:11:58.649Z,97671.84
2022-08-16T18:14:52.499Z,97663.72
2022-08-16T18:17:12.537Z,97670.72
2022-08-16T18:19:39.063Z,97671.06
2022-08-16T18:22:20.755Z,97667.09
2022-08-16T18:24:47.736Z,97668.34
2022-08-16T18:27:26.512Z,97669.13
2022-08-16T18:29:53.601Z,97672.63
2022-08-16T18:32:24.495Z,97666.22
2022-08-16T18:34:51.489Z,97676.56
2022-08-16T18:37:17.862Z,97683.97
2022-08-16T18:39:48.116Z,97677.22
2022-08-16T18:42:14.536Z,97684.97
2022-08-16T18:44:42.453Z,97689.25
2022-08-16T18:47:09.753Z,97690.50
2022-08-16T18:49:36.735Z,97688.00
2022-08-16T18:52:03.415Z,97688.13
2022-08-16T18:54:30.231Z,97689.84
2022-08-16T18:56:58.336Z,97689.13
2022-08-16T18:59:28.507Z,97693.66
2022-08-16T19:01:59.734Z,97695.19
2022-08-16T19:04:55.364Z,97705.34
2022-08-16T19:07:12.665Z,97714.25
2022-08-16T19:09:40.195Z,97708.06
2022-08-16T19:12:06.701Z,97711.91
2022-08-16T19:14:33.071Z,97705.81
2022-08-16T19:16:59.453Z,97709.53
2022-08-16T19:19:25.849Z,97715.44
2022-08-16T19:21:52.448Z,97716.81
2022-08-16T19:24:19.041Z,97723.34
2022-08-16T19:26:45.638Z,97719.97
2022-08-16T19:29:12.011Z,97722.91
2022-08-16T19:31:39.965Z,97715.47
2022-08-16T19:34:08.156Z,97735.69
2022-08-16T19:36:36.692Z,97736.22
2022-08-16T19:39:05.885Z,97733.75
2022-08-16T19:41:33.173Z,97740.88
2022-08-16T19:43:59.553Z,97748.31
2022-08-16T19:46:25.932Z,97746.19
2022-08-16T19:48:52.522Z,97744.25
2022-08-16T19:51:19.152Z,97744.81
2022-08-16T19:53:45.541Z,97748.06
2022-08-16T19:56:11.956Z,97746.66
2022-08-16T19:58:47.363Z,97739.50
2022-08-16T20:01:24.908Z,97751.59
2022-08-16T20:03:51.863Z,97748.97
2022-08-16T20:06:35.816Z,97745.69
2022-08-16T20:09:04.624Z,97742.75
2022-08-16T20:11:31.040Z,97744.69
2022-08-16T20:13:57.677Z,97739.25
2022-08-16T20:16:24.058Z,97746.56
2022-08-16T20:18:50.422Z,97749.38
2022-08-16T20:21:17.444Z,97747.00
2022-08-16T20:23:44.116Z,97747.69
2022-08-16T20:29:40.131Z,97752.72
2022-08-16T20:32:06.947Z,97753.31
2022-08-16T20:34:33.285Z,97754.22
2022-08-16T20:36:59.645Z,97755.03
2022-08-16T20:39:26.107Z,97762.28
2022-08-16T20:41:52.491Z,97753.22
2022-08-16T20:44:25.389Z,97757.31
2022-08-16T20:46:51.812Z,97760.53
2022-08-16T20:49:18.137Z,97754.91
2022-08-16T20:51:46.906Z,97762.22
2022-08-16T20:54:16.368Z,97762.94
2022-08-16T20:56:42.756Z,97763.00
2022-08-16T20:59:09.124Z,97759.06
2022-08-16T21:01:46.969Z,97757.94
2022-08-16T21:04:18.696Z,97759.59
2022-08-16T21:06:47.336Z,97763.66
2022-08-16T21:09:21.300Z,97773.06
2022-08-16T21:11:51.555Z,97780.06
2022-08-16T21:14:18.010Z,97777.03
2022-08-16T21:16:44.398Z,97780.03
2022-08-16T21:19:10.788Z,97782.91
2022-08-16T21:21:37.196Z,97786.97
2022-08-16T21:24:03.649Z,97782.19
2022-08-16T21:26:30.132Z,97774.09
2022-08-16T21:28:56.568Z,97780.31
2022-08-16T21:31:23.542Z,97781.91
2022-08-16T21:33:55.404Z,97785.31
2022-08-16T21:36:35.262Z,97780.78
2022-08-16T21:39:02.413Z,97788.19
2022-08-16T21:41:28.790Z,97781.91
2022-08-16T21:43:55.151Z,97790.16
2022-08-16T21:46:21.541Z,97781.03
2022-08-16T21:48:47.895Z,97786.22
2022-08-16T21:51:15.757Z,97783.28
2022-08-16T21:53:42.475Z,97781.81
2022-08-16T21:56:12.682Z,97778.22
2022-08-16T21:58:43.968Z,97771.34
2022-08-16T22:01:10.347Z,97774.31
2022-08-16T22:03:36.768Z,97774.84
2022-08-16T22:06:13.277Z,97775.78
2022-08-16T22:08:49.840Z,97781.19
2022-08-16T22:11:20.608Z,97781.66
2022-08-16T22:13:58.031Z,97794.72
2022-08-16T22:16:25.107Z,97787.06
2022-08-16T22:18:51.965Z,97785.63
2022-08-16T22:21:18.957Z,97791.00
2022-08-16T22:23:45.309Z,97793.41
2022-08-16T22:26:30.448Z,97793.34
2022-08-16T22:28:58.751Z,97793.75
2022-08-16T22:31:25.381Z,97796.09
2022-08-16T22:33:51.744Z,97795.31
2022-08-16T22:36:18.106Z,97794.13
2022-08-16T22:38:55.242Z,97795.66
2022-08-16T22:41:23.280Z,97792.28
2022-08-16T22:43:49.643Z,97784.88
2022-08-16T22:46:16.202Z,97794.22
2022-08-16T22:48:43.069Z,97791.25
2022-08-16T22:51:09.486Z,97794.56
2022-08-16T22:53:37.356Z,97785.94
2022-08-16T22:56:04.388Z,97786.66
2022-08-16T22:58:34.083Z,97790.47
2022-08-16T23:01:04.467Z,97790.53
2022-08-16T23:03:30.898Z,97791.47
2022-08-16T23:05:58.327Z,97797.09
2022-08-16T23:08:38.449Z,97795.09
2022-08-16T23:11:10.672Z,97796.09
2022-08-16T23:13:37.096Z,97785.16
2022-08-16T23:16:10.713Z,97789.25
2022-08-16T23:18:37.941Z,97788.34
2022-08-16T23:21:05.081Z,97786.69
2022-08-16T23:23:31.442Z,97787.06
2022-08-16T23:25:57.973Z,97788.88
2022-08-16T23:28:28.005Z,97783.41
2022-08-16T23:30:54.889Z,97783.28
2022-08-16T23:33:21.884Z,97778.81
2022-08-16T23:35:49.129Z,97777.81
2022-08-16T23:38:37.474Z,97782.72
2022-08-16T23:41:04.063Z,97779.19
2022-08-16T23:43:38.716Z,97774.47
2022-08-16T23:46:06.673Z,97776.84
2022-08-16T23:48:33.740Z,97774.44
2022-08-16T23:51:20.190Z,97767.22
2022-08-16T23:53:47.103Z,97765.91
2022-08-16T23:56:15.291Z,97766.88
2022-08-16T23:58:46.238Z,97763.56
